Time;durP1;ratioP1;P1;durP2;ratioP2;P2;SDS_P1;SDS_P2;PMS_P1;PMS_P2;Temp;Humidity;BMP_temperature;BMP_pressure;BME280_temperature;BME280_humidity;BME280_pressure;Samples;Min_cycle;Max_cycle;Signal;HPM_P1;HPM_P2
2023/07/01 00:00:01;;;;;;;2.58;1.77;;;;;;;15.10;75.48;99270.34;12190846;19;20031;-79
2023/07/01 00:04:08;;;;;;;3.22;1.60;;;;;;;14.96;75.81;99278.53;12242911;19;20010;-79
2023/07/01 00:08:10;;;;;;;1.92;1.40;;;;;;;14.78;76.10;99274.53;12221668;19;20007;-78
2023/07/01 00:12:12;;;;;;;3.97;1.80;;;;;;;14.68;76.63;99277.41;12192049;19;20010;-79
2023/07/01 00:16:14;;;;;;;4.57;2.03;;;;;;;14.62;77.79;99275.78;12210417;19;20720;-78
2023/07/01 00:20:16;;;;;;;5.73;2.00;;;;;;;14.57;77.55;99271.94;12212122;19;20014;-79
2023/07/01 00:24:17;;;;;;;3.57;1.50;;;;;;;14.52;76.05;99274.75;12190693;19;20006;-78
2023/07/01 00:28:19;;;;;;;3.17;2.00;;;;;;;14.43;76.35;99270.91;12211245;19;20082;-78
2023/07/01 00:32:21;;;;;;;5.00;1.60;;;;;;;14.38;76.49;99273.72;12210556;19;20007;-78
2023/07/01 00:36:23;;;;;;;4.43;1.70;;;;;;;14.36;76.41;99265.69;12186154;19;20015;-78
2023/07/01 00:40:25;;;;;;;3.43;1.30;;;;;;;14.35;76.22;99260.44;12209996;19;20291;-78
2023/07/01 00:44:27;;;;;;;3.35;1.30;;;;;;;14.35;76.42;99258.47;12204226;19;20018;-78
2023/07/01 00:48:29;;;;;;;3.35;1.25;;;;;;;14.33;76.75;99263.47;12188697;19;20499;-78
2023/07/01 00:52:31;;;;;;;4.53;1.83;;;;;;;14.32;77.18;99263.78;12208532;19;20023;-78
2023/07/01 00:56:33;;;;;;;4.50;1.75;;;;;;;14.30;77.19;99257.69;12189193;19;20264;-78
2023/07/01 01:00:35;;;;;;;2.45;1.63;;;;;;;14.31;77.92;99259.38;12186428;19;20516;-78
2023/07/01 01:05:10;;;;;;;5.70;2.20;;;;;;;14.32;80.08;99244.38;12207425;19;20014;-78
2023/07/01 01:09:22;;;;;;;3.42;1.95;;;;;;;14.33;81.88;99251.56;12185912;19;20007;-78
2023/07/01 01:13:25;;;;;;;3.92;1.80;;;;;;;14.34;83.03;99237.44;12202409;19;20022;-78
2023/07/01 01:17:28;;;;;;;;;;;;;;;14.33;84.32;99240.47;12206910;19;20027;-78
2023/07/01 01:21:30;;;;;;;4.07;2.17;;;;;;;14.34;84.24;99234.66;12185688;19;19919;-78
2023/07/01 01:25:45;;;;;;;4.17;2.20;;;;;;;14.34;85.51;99233.84;12206448;19;20031;-78
2023/07/01 01:29:47;;;;;;;5.50;2.35;;;;;;;14.33;85.76;99230.22;12201203;19;20025;-77
2023/07/01 01:33:49;;;;;;;4.50;1.80;;;;;;;14.35;86.72;99224.41;12185710;19;20018;-78
2023/07/01 01:37:59;;;;;;;4.70;2.25;;;;;;;14.34;87.15;99225.53;12203893;19;20642;-78
2023/07/01 01:42:22;;;;;;;3.55;1.90;;;;;;;14.33;88.10;99219.13;12184204;19;20006;-78
2023/07/01 01:46:25;;;;;;;;;;;;;;;14.31;88.71;99220.56;12205712;19;20649;-78
2023/07/01 01:50:28;;;;;;;2.92;1.80;;;;;;;14.30;88.25;99213.34;12206255;19;19918;-78
2023/07/01 01:54:31;;;;;;;4.28;2.03;;;;;;;14.29;88.25;99201.44;12184853;19;20003;-78
2023/07/01 01:58:33;;;;;;;4.25;1.83;;;;;;;14.29;88.11;99204.22;12204165;19;20003;-79
2023/07/01 02:02:36;;;;;;;4.57;2.30;;;;;;;14.31;88.03;99201.16;12205539;19;20350;-78
2023/07/01 02:06:38;;;;;;;4.28;1.77;;;;;;;14.32;88.27;99202.81;12179154;19;20272;-78
2023/07/01 02:10:40;;;;;;;4.88;2.47;;;;;;;14.32;88.10;99200.03;12208396;19;20014;-79
2023/07/01 02:14:41;;;;;;;2.75;1.75;;;;;;;14.32;88.16;99200.03;12210456;19;20014;-78
2023/07/01 02:18:44;;;;;;;7.85;2.10;;;;;;;14.32;88.27;99202.81;12184930;19;20017;-78
2023/07/01 02:22:45;;;;;;;3.45;1.80;;;;;;;14.32;88.45;99191.72;12206319;19;20006;-79
2023/07/01 02:26:47;;;;;;;3.15;1.88;;;;;;;14.31;87.97;99196.44;12221472;19;20078;-79
2023/07/01 02:30:50;;;;;;;2.53;1.80;;;;;;;14.32;87.92;99186.19;12197779;19;20006;-78
2023/07/01 02:34:52;;;;;;;8.47;2.00;;;;;;;14.33;87.95;99185.88;12219310;19;20109;-78
2023/07/01 02:38:54;;;;;;;3.90;1.67;;;;;;;14.35;87.21;99183.66;12209323;19;20018;-78
2023/07/01 02:42:55;;;;;;;3.28;2.20;;;;;;;14.36;86.80;99188.06;12216853;19;20011;-78
2023/07/01 02:46:57;;;;;;;5.45;2.08;;;;;;;14.38;86.62;99178.66;12219568;19;20083;-78
2023/07/01 02:50:59;;;;;;;5.78;2.10;;;;;;;14.40;86.94;99184.75;12195197;19;20025;-78
2023/07/01 02:55:02;;;;;;;4.23;2.23;;;;;;;14.42;87.47;99183.31;12214335;19;20023;-79
2023/07/01 02:59:04;;;;;;;3.55;1.83;;;;;;;14.41;87.91;99176.13;12215896;19;20018;-77
2023/07/01 03:03:06;;;;;;;4.43;2.30;;;;;;;14.41;88.34;99165.03;12189521;19;20018;-78
2023/07/01 03:07:08;;;;;;;4.10;2.15;;;;;;;14.39;88.33;99183.91;12215025;19;20418;-79
2023/07/01 03:11:10;;;;;;;3.92;1.80;;;;;;;14.38;89.27;99175.88;12217151;19;20346;-79
2023/07/01 03:15:12;;;;;;;5.05;2.60;;;;;;;14.36;90.04;99178.94;12193830;19;20011;-79
2023/07/01 03:19:14;;;;;;;3.10;2.00;;;;;;;14.34;91.81;99184.78;12213998;19;20463;-79
2023/07/01 03:23:16;;;;;;;5.82;2.50;;;;;;;14.34;92.16;99182.00;12212035;19;20402;-79
2023/07/01 03:27:17;;;;;;;7.13;2.50;;;;;;;14.39;93.14;99192.22;12192473;19;20015;-79
2023/07/01 03:31:23;;;;;;;4.45;2.75;;;;;;;14.41;93.47;99192.75;12212264;19;20128;-78
2023/07/01 03:35:24;;;;;;;5.55;2.80;;;;;;;14.41;94.26;99181.66;12213480;19;20010;-78
2023/07/01 03:39:26;;;;;;;5.38;2.83;;;;;;;14.43;94.76;99167.53;12193026;19;20357;-78
2023/07/01 03:43:28;;;;;;;5.85;3.28;;;;;;;14.48;95.99;99159.97;12211774;19;20023;-79
2023/07/01 03:47:30;;;;;;;6.50;3.22;;;;;;;14.54;96.49;99160.78;12216102;19;20021;-79
2023/07/01 03:51:32;;;;;;;5.78;3.88;;;;;;;14.62;96.25;99170.44;12191588;19;20040;-78
2023/07/01 03:55:34;;;;;;;9.27;3.65;;;;;;;14.72;95.90;99164.75;12213103;19;20454;-78
2023/07/01 03:59:36;;;;;;;7.32;3.53;;;;;;;14.84;95.53;99156.88;12212916;19;20011;-79
2023/07/01 04:03:37;;;;;;;6.07;3.40;;;;;;;14.94;95.98;99162.31;12192159;19;20054;-78
2023/07/01 04:07:41;;;;;;;6.75;3.83;;;;;;;15.10;95.22;99160.19;12214848;19;20106;-78
2023/07/01 04:11:43;;;;;;;6.68;3.65;;;;;;;15.26;94.53;99152.53;12214732;19;20010;-78
2023/07/01 04:15:45;;;;;;;5.72;3.15;;;;;;;15.40;93.96;99158.97;12187489;19;20389;-78
2023/07/01 04:19:46;;;;;;;5.28;2.88;;;;;;;15.52;93.39;99154.94;12211665;19;20086;-78
2023/07/01 04:23:48;;;;;;;5.60;3.38;;;;;;;15.63;92.81;99159.25;12210619;19;20014;-78
2023/07/01 04:27:50;;;;;;;5.80;3.33;;;;;;;15.72;91.93;99155.50;12190420;19;20010;-78
2023/07/01 04:31:52;;;;;;;5.45;3.42;;;;;;;15.80;91.29;99156.00;12212364;19;20011;-78
2023/07/01 04:35:53;;;;;;;5.07;3.55;;;;;;;15.88;90.71;99147.81;12206518;19;20362;-78
2023/07/01 04:39:55;;;;;;;5.07;3.38;;;;;;;15.97;90.37;99139.59;12208644;19;20011;-79
2023/07/01 04:43:57;;;;;;;6.55;3.40;;;;;;;16.09;89.59;99142.75;12209902;19;20013;-78
2023/07/01 04:48:00;;;;;;;5.95;2.92;;;;;;;16.21;88.62;99142.28;12188623;19;20026;-78
2023/07/01 04:52:02;;;;;;;;;;;;;;;16.32;88.55;99151.25;12216837;19;20010;-79
2023/07/01 04:56:04;;;;;;;5.18;2.80;;;;;;;16.48;87.97;99160.16;12209952;19;19923;-79
2023/07/01 05:00:09;;;;;;;5.83;3.50;;;;;;;16.62;88.38;99149.88;12192544;19;20018;-78
2023/07/01 05:04:11;;;;;;;6.95;2.83;;;;;;;16.82;88.05;99148.72;12210624;19;20003;-79
2023/07/01 05:08:13;;;;;;;7.13;3.53;;;;;;;16.91;88.76;99149.66;12211280;19;20010;-79
2023/07/01 05:12:16;;;;;;;5.90;3.05;;;;;;;16.92;88.82;99136.56;12189633;19;20014;-78
2023/07/01 05:16:17;;;;;;;4.88;2.65;;;;;;;16.86;88.50;99124.72;12210852;19;20019;-79
2023/07/01 05:20:19;;;;;;;6.55;2.88;;;;;;;16.78;88.28;99129.03;12237469;19;20013;-79
2023/07/01 05:24:21;;;;;;;7.00;3.15;;;;;;;16.72;88.10;99137.78;12217621;19;20011;-79
2023/07/01 05:28:23;;;;;;;5.25;2.88;;;;;;;16.69;88.52;99135.59;12240078;19;20014;-79
2023/07/01 05:32:25;;;;;;;12.05;3.35;;;;;;;16.69;88.19;99133.66;12231403;19;20011;-79
2023/07/01 05:36:27;;;;;;;5.88;3.00;;;;;;;16.73;88.39;99126.31;12184978;19;20070;-79
2023/07/01 05:40:29;;;;;;;5.00;3.00;;;;;;;16.78;88.31;99131.81;12209124;19;20040;-79
2023/07/01 05:44:30;;;;;;;6.18;3.10;;;;;;;16.84;87.85;99130.59;12207065;19;20023;-79
2023/07/01 05:48:32;;;;;;;7.85;2.97;;;;;;;16.89;87.23;99131.63;12189743;19;20014;-79
2023/07/01 05:52:34;;;;;;;7.45;3.22;;;;;;;17.00;86.35;99125.53;12208857;19;20002;-80
2023/07/01 05:56:36;;;;;;;6.00;2.70;;;;;;;17.14;85.50;99133.09;12208586;19;20006;-79
2023/07/01 06:00:38;;;;;;;5.50;3.00;;;;;;;17.25;82.17;99134.50;12196852;19;20247;-78
2023/07/01 06:04:39;;;;;;;5.80;2.80;;;;;;;17.35;81.89;99137.09;12219070;19;20382;-81
2023/07/01 06:08:44;;;;;;;5.68;2.63;;;;;;;17.52;81.94;99128.09;12221984;19;20621;-78
2023/07/01 06:12:46;;;;;;;7.95;2.75;;;;;;;17.75;81.20;99132.56;12198077;19;20006;-78
2023/07/01 06:16:48;;;;;;;10.40;2.87;;;;;;;17.97;80.33;99142.13;12179011;19;20010;-79
2023/07/01 06:20:50;;;;;;;6.60;3.20;;;;;;;18.21;79.49;99134.28;12216992;19;20019;-78
2023/07/01 06:24:52;;;;;;;5.10;2.78;;;;;;;18.43;77.93;99132.63;12180576;19;20014;-80
2023/07/01 06:28:53;;;;;;;4.95;2.92;;;;;;;18.56;76.34;99125.31;12200980;19;20370;-80
2023/07/01 06:32:55;;;;;;;5.88;3.10;;;;;;;18.76;76.22;99126.75;12204383;19;20024;-77
2023/07/01 06:36:57;;;;;;;5.23;2.93;;;;;;;18.89;73.93;99129.47;12223043;19;20675;-80
2023/07/01 06:41:00;;;;;;;6.80;2.60;;;;;;;18.95;72.48;99123.72;12222976;19;20377;-79
2023/07/01 06:45:02;;;;;;;5.15;2.85;;;;;;;19.09;72.23;99122.47;12200452;19;20018;-80
2023/07/01 06:49:04;;;;;;;4.05;2.58;;;;;;;19.22;70.77;99112.34;12222812;19;20018;-80
2023/07/01 06:53:06;;;;;;;7.35;3.05;;;;;;;19.39;67.83;99108.75;12219418;19;20033;-79
2023/07/01 06:57:08;;;;;;;4.80;2.20;;;;;;;19.59;65.77;99118.47;12200270;19;20015;-79
2023/07/01 07:01:10;;;;;;;4.45;2.40;;;;;;;19.82;64.51;99115.59;12225698;19;20598;-79
2023/07/01 07:05:12;;;;;;;8.35;2.50;;;;;;;20.01;63.37;99114.09;12221647;19;20010;-80
2023/07/01 07:09:15;;;;;;;6.47;3.10;;;;;;;20.25;63.03;99107.16;12204568;19;20086;-78
2023/07/01 07:13:20;;;;;;;4.18;2.30;;;;;;;20.56;61.07;99104.19;12234119;19;20018;-81
2023/07/01 07:17:22;;;;;;;6.78;2.63;;;;;;;20.69;59.63;99102.31;12222883;19;20002;-80
2023/07/01 07:21:24;;;;;;;9.47;2.80;;;;;;;20.85;58.30;99094.19;12202871;19;20007;-80
2023/07/01 07:25:26;;;;;;;6.13;2.70;;;;;;;20.86;57.88;99093.84;12221720;19;20011;-79
2023/07/01 07:29:29;;;;;;;5.53;3.08;;;;;;;21.06;57.01;99097.91;12223978;19;20058;-79
2023/07/01 07:33:31;;;;;;;10.43;3.00;;;;;;;21.29;56.22;99098.41;12206838;19;20374;-80
2023/07/01 07:37:34;;;;;;;7.35;2.50;;;;;;;21.68;54.05;99087.16;12232093;19;20513;-79
2023/07/01 07:41:36;;;;;;;5.82;2.40;;;;;;;22.03;52.90;99084.88;12222326;19;20081;-79
2023/07/01 07:45:38;;;;;;;4.95;2.53;;;;;;;22.23;52.48;99084.06;12204768;19;20010;-80
2023/07/01 07:49:41;;;;;;;6.30;2.72;;;;;;;22.51;50.95;99077.81;12224073;19;20010;-79
2023/07/01 07:53:43;;;;;;;5.63;2.70;;;;;;;22.82;50.29;99074.50;12223540;19;20350;-79
2023/07/01 07:57:45;;;;;;;6.63;2.93;;;;;;;23.09;49.56;99067.41;12194668;19;20031;-79
2023/07/01 08:01:46;;;;;;;12.68;2.60;;;;;;;23.32;48.00;99058.47;12219999;19;20021;-78
2023/07/01 08:05:50;;;;;;;6.15;2.30;;;;;;;23.56;46.15;99052.81;12222213;19;20015;-79
2023/07/01 08:09:53;;;;;;;5.45;2.05;;;;;;;23.54;45.56;99043.91;12201026;19;20018;-79
2023/07/01 08:13:55;;;;;;;6.68;2.10;;;;;;;23.51;44.68;99049.44;12221222;19;20055;-79
2023/07/01 08:17:57;;;;;;;6.10;1.90;;;;;;;23.46;44.46;99042.03;12196284;19;20031;-79
2023/07/01 08:21:59;;;;;;;5.43;1.77;;;;;;;23.62;45.43;99030.88;12219390;19;20367;-79
2023/07/01 08:26:01;;;;;;;7.63;2.07;;;;;;;23.97;44.24;99038.75;12218831;19;20119;-80
2023/07/01 08:30:03;;;;;;;6.63;2.10;;;;;;;24.11;43.67;99023.09;12195827;19;20007;-79
2023/07/01 08:34:05;;;;;;;4.43;1.67;;;;;;;24.67;43.28;99015.75;12217646;19;20006;-78
2023/07/01 08:38:07;;;;;;;6.63;1.73;;;;;;;24.78;42.07;99039.38;12218639;19;20037;-80
2023/07/01 08:42:13;;;;;;;8.53;1.57;;;;;;;24.45;42.26;99042.53;12195716;19;20014;-80
2023/07/01 08:46:18;;;;;;;4.80;1.52;;;;;;;24.28;42.94;99044.47;12216514;19;20006;-80
2023/07/01 08:50:20;;;;;;;4.53;1.60;;;;;;;24.01;43.81;99040.50;12218218;19;20010;-80
2023/07/01 08:54:22;;;;;;;7.22;1.60;;;;;;;23.62;44.81;99033.72;12194751;19;20031;-81
2023/07/01 08:58:25;;;;;;;3.65;1.30;;;;;;;23.39;45.73;99037.03;12215946;19;20345;-80
2023/07/01 09:02:28;;;;;;;3.55;1.35;;;;;;;23.31;46.24;99043.59;12213312;19;20015;-80
2023/07/01 09:06:30;;;;;;;;;;;;;;;23.10;47.01;99048.53;12196066;19;20011;-80
2023/07/01 09:10:32;;;;;;;6.25;1.63;;;;;;;22.82;48.19;99039.97;12218251;19;19931;-79
2023/07/01 09:15:09;;;;;;;4.25;1.48;;;;;;;22.74;48.68;99025.69;12213111;19;20470;-79
2023/07/01 09:19:14;;;;;;;3.08;1.63;;;;;;;22.71;49.38;99020.75;12197313;19;20379;-79
2023/07/01 09:23:30;;;;;;;3.10;1.73;;;;;;;22.51;49.81;99027.28;12215645;19;20035;-80
2023/07/01 09:27:46;;;;;;;2.97;1.48;;;;;;;22.41;50.40;99024.94;12195342;19;20488;-79
2023/07/01 09:31:50;;;;;;;3.20;2.03;;;;;;;22.16;51.00;99032.44;12220085;19;20010;-80
2023/07/01 09:35:57;;;;;;;6.03;1.80;;;;;;;22.17;51.18;99034.94;12213987;19;20026;-80
2023/07/01 09:40:23;;;;;;;4.10;1.80;;;;;;;22.16;51.85;99029.63;12192136;19;20023;-80
2023/07/01 09:44:26;;;;;;;6.78;2.00;;;;;;;22.18;51.77;99024.53;12214765;19;20014;-80
2023/07/01 09:48:28;;;;;;;3.03;1.50;;;;;;;22.10;52.53;99028.19;12192716;19;20011;-80
2023/07/01 09:52:34;;;;;;;5.23;1.43;;;;;;;21.96;53.42;99020.09;12219524;19;20022;-80
2023/07/01 09:56:36;;;;;;;4.50;1.13;;;;;;;21.97;54.19;99016.13;12213722;19;20017;-79
2023/07/01 10:00:39;;;;;;;2.70;1.30;;;;;;;22.07;53.79;99010.06;12189094;19;20028;-79
2023/07/01 10:04:41;;;;;;;4.65;1.48;;;;;;;22.13;53.99;99013.47;12212846;19;20011;-79
2023/07/01 10:08:43;;;;;;;3.13;1.25;;;;;;;22.19;54.67;99006.50;12217066;19;20020;-79
2023/07/01 10:12:47;;;;;;;2.15;1.17;;;;;;;22.11;54.82;99005.44;12192149;19;20015;-79
2023/07/01 10:16:51;;;;;;;3.88;1.27;;;;;;;22.09;55.53;99002.13;12221166;19;20007;-79
2023/07/01 10:21:33;;;;;;;2.33;1.05;;;;;;;22.04;56.04;99005.16;12215256;19;20006;-80
2023/07/01 10:25:37;;;;;;;2.17;1.48;;;;;;;22.09;55.95;99004.94;12189098;19;20071;-80
2023/07/01 10:29:39;;;;;;;2.83;1.27;;;;;;;22.11;56.27;98999.81;12210244;19;20010;-79
2023/07/01 10:33:44;;;;;;;3.90;1.17;;;;;;;22.20;56.85;99003.38;12189856;19;20017;-80
2023/07/01 10:38:21;;;;;;;3.10;1.23;;;;;;;22.15;57.14;99006.34;12215498;19;20486;-79
2023/07/01 10:42:30;;;;;;;2.35;1.10;;;;;;;22.06;58.57;99003.66;12209129;19;20039;-79
2023/07/01 10:46:32;;;;;;;3.63;1.20;;;;;;;21.90;60.40;99013.06;12196123;19;20010;-79
2023/07/01 10:51:04;;;;;;;3.10;1.43;;;;;;;21.63;65.72;99017.28;12223981;19;20011;-80
2023/07/01 10:55:36;;;;;;;3.17;1.40;;;;;;;21.23;68.14;99014.91;12200213;19;20003;-81
2023/07/01 10:59:38;;;;;;;2.63;1.58;;;;;;;20.84;71.83;99028.16;12221760;19;20473;-79
2023/07/01 11:03:39;;;;;;;3.45;1.33;;;;;;;20.61;73.75;99017.25;12198529;19;20022;-79
2023/07/01 11:07:43;;;;;;;2.20;1.30;;;;;;;20.37;80.73;99019.75;12222587;19;20017;-79
2023/07/01 11:11:45;;;;;;;3.75;1.55;;;;;;;20.21;84.28;99014.69;12224221;19;20011;-80
2023/07/01 11:16:05;;;;;;;4.07;1.80;;;;;;;20.22;86.29;99016.31;12197771;19;20014;-80
2023/07/01 11:20:07;;;;;;;3.92;1.40;;;;;;;20.37;85.87;99011.34;12222030;19;20031;-79
2023/07/01 11:28:51;;;;;;;4.35;1.52;;;;;;;20.85;88.72;98999.81;12214749;19;20003;-79
2023/07/01 11:33:22;;;;;;;4.70;2.05;;;;;;;21.07;91.08;98998.69;12243699;19;20401;-80
2023/07/01 11:37:28;;;;;;;4.70;1.63;;;;;;;21.13;90.03;98999.31;12200065;19;20014;-79
2023/07/01 11:41:30;;;;;;;4.65;1.73;;;;;;;21.09;86.71;98987.97;12218097;19;20026;-80
2023/07/01 11:45:43;;;;;;;4.70;1.80;;;;;;;20.99;86.94;98993.97;12207728;19;20043;-79
2023/07/01 11:49:46;;;;;;;3.78;2.45;;;;;;;21.20;87.16;98993.97;12222112;19;20010;-80
2023/07/01 11:53:58;;;;;;;7.23;1.67;;;;;;;21.51;86.74;98998.41;12215428;19;20095;-79
2023/07/01 11:58:00;;;;;;;3.20;1.60;;;;;;;21.57;83.83;98992.25;12195338;19;20788;-79
2023/07/01 12:02:04;;;;;;;4.00;1.63;;;;;;;21.84;84.88;98993.66;12220053;19;20361;-79
2023/07/01 12:06:17;;;;;;;6.28;2.00;;;;;;;22.19;78.95;98989.69;12219789;19;20405;-79
2023/07/01 12:10:20;;;;;;;2.90;1.80;;;;;;;22.52;78.45;98986.81;12196675;19;20017;-79
2023/07/01 12:14:23;;;;;;;2.90;1.90;;;;;;;22.84;75.28;98981.44;12217679;19;20022;-80
2023/07/01 12:18:27;;;;;;;6.00;1.58;;;;;;;23.10;72.37;98981.09;12219027;19;20817;-79
2023/07/01 12:22:28;;;;;;;3.83;1.85;;;;;;;23.39;70.10;98975.19;12195210;19;20010;-79
2023/07/01 12:26:30;;;;;;;2.93;1.60;;;;;;;23.58;67.18;98973.69;12214975;19;20010;-79
2023/07/01 12:30:32;;;;;;;4.37;1.70;;;;;;;23.98;66.24;98956.00;12206341;19;20078;-80
2023/07/01 12:34:34;;;;;;;3.37;1.53;;;;;;;24.50;62.46;98966.22;12215482;19;20145;-79
2023/07/01 12:38:36;;;;;;;3.47;1.67;;;;;;;24.50;60.43;98958.59;12213577;19;20006;-80
2023/07/01 12:42:42;;;;;;;3.47;1.73;;;;;;;24.63;59.69;98964.13;12194612;19;20011;-79
2023/07/01 12:46:45;;;;;;;3.22;1.83;;;;;;;24.37;60.03;98948.56;12210375;19;20487;-79
2023/07/01 12:50:47;;;;;;;3.10;1.60;;;;;;;24.02;61.64;98948.44;12216960;19;20014;-79
2023/07/01 12:54:49;;;;;;;3.83;1.77;;;;;;;23.67;62.35;98941.44;12195313;19;20040;-79
2023/07/01 12:58:51;;;;;;;5.00;1.60;;;;;;;23.29;62.98;98955.16;12217939;19;20007;-79
2023/07/01 13:02:53;;;;;;;2.83;1.80;;;;;;;23.10;64.21;98938.94;12215286;19;20007;-80
2023/07/01 13:06:55;;;;;;;4.10;1.70;;;;;;;22.96;64.77;98944.94;12197891;19;20007;-78
2023/07/01 13:10:57;;;;;;;2.63;1.50;;;;;;;22.73;65.34;98944.59;12218296;19;20011;-79
2023/07/01 13:14:59;;;;;;;4.07;1.88;;;;;;;22.64;66.17;98927.88;12217862;19;20024;-79
2023/07/01 13:19:03;;;;;;;3.97;1.55;;;;;;;22.58;66.83;98946.13;12196651;19;20017;-79
2023/07/01 13:23:05;;;;;;;3.72;1.40;;;;;;;22.61;66.25;98934.19;12215665;19;20000;-79
2023/07/01 13:27:13;;;;;;;3.67;1.58;;;;;;;22.70;65.93;98936.88;12215218;19;20390;-79
2023/07/01 13:31:23;;;;;;;2.60;1.77;;;;;;;22.65;66.58;98935.13;12194647;19;20015;-79
2023/07/01 13:35:31;;;;;;;3.15;1.70;;;;;;;22.57;66.18;98933.22;12213611;19;20018;-79
2023/07/01 13:40:12;;;;;;;3.83;1.90;;;;;;;22.60;66.79;98926.09;12203079;19;20007;-79
2023/07/01 13:44:19;;;;;;;4.15;2.10;;;;;;;22.38;67.15;98917.00;12213593;19;20014;-79
2023/07/01 13:48:32;;;;;;;3.72;1.77;;;;;;;22.34;66.67;98916.06;12214472;19;20015;-79
2023/07/01 13:52:40;;;;;;;2.90;1.70;;;;;;;22.35;66.60;98908.44;12196640;19;20460;-79
2023/07/01 13:56:42;;;;;;;3.95;1.67;;;;;;;22.27;67.51;98901.78;12216800;19;20014;-79
2023/07/01 14:00:48;;;;;;;3.85;1.50;;;;;;;22.46;67.36;98906.81;12195505;19;20030;-79
2023/07/01 14:04:51;;;;;;;5.95;2.13;;;;;;;22.70;66.74;98903.19;12218764;19;20103;-79
2023/07/01 14:08:52;;;;;;;3.78;1.70;;;;;;;22.58;66.74;98889.97;12218229;19;20015;-79
2023/07/01 14:12:56;;;;;;;2.57;1.80;;;;;;;22.42;67.49;98903.88;12193908;19;20017;-79
2023/07/01 14:16:59;;;;;;;3.88;1.90;;;;;;;22.39;68.32;98898.97;12214813;19;20010;-79
2023/07/01 14:21:07;;;;;;;3.45;1.85;;;;;;;22.38;69.73;98896.53;12219618;19;20468;-79
2023/07/01 14:25:09;;;;;;;3.50;1.90;;;;;;;22.28;71.87;98889.41;12203378;19;20011;-80
2023/07/01 14:29:15;;;;;;;2.90;1.67;;;;;;;22.20;71.85;98890.31;12227944;19;20003;-79
2023/07/01 14:33:18;;;;;;;4.43;1.83;;;;;;;22.11;71.60;98887.59;12232145;19;20279;-79
2023/07/01 14:37:20;;;;;;;2.90;1.67;;;;;;;22.12;71.20;98883.59;12205782;19;20011;-79
2023/07/01 14:41:25;;;;;;;;;;;;;;;22.01;71.40;98888.88;12232511;19;20010;-79
2023/07/01 14:45:27;;;;;;;6.00;1.90;;;;;;;21.88;72.74;98878.78;12245323;19;19914;-79
2023/07/01 14:49:29;;;;;;;4.13;1.52;;;;;;;21.82;72.35;98891.41;12223939;19;20078;-79
2023/07/01 14:53:31;;;;;;;3.78;1.45;;;;;;;21.76;72.20;98887.19;12254294;19;20018;-79
2023/07/01 14:57:33;;;;;;;5.57;2.43;;;;;;;21.63;73.37;98894.75;12218380;19;20011;-79
2023/07/01 15:01:34;;;;;;;4.53;1.67;;;;;;;21.55;78.73;98899.25;12220679;19;20018;-80
2023/07/01 15:05:38;;;;;;;4.28;1.92;;;;;;;21.26;83.30;98891.75;12220768;19;20006;-78
2023/07/01 15:09:40;;;;;;;4.97;1.73;;;;;;;20.93;89.51;98897.31;12198502;19;20010;-79
2023/07/01 15:13:42;;;;;;;4.10;1.33;;;;;;;20.74;86.07;98894.97;12220286;19;20462;-79
2023/07/01 15:17:44;;;;;;;3.45;1.63;;;;;;;20.62;90.25;98923.69;12218424;19;20013;-79
2023/07/01 15:21:46;;;;;;;5.35;2.05;;;;;;;20.63;93.42;98927.31;12197028;19;20496;-79
2023/07/01 15:25:48;;;;;;;3.50;1.97;;;;;;;20.32;100.00;98931.25;12214093;19;20468;-79
2023/07/01 15:29:50;;;;;;;3.83;1.75;;;;;;;20.12;100.00;98923.59;12218191;19;20027;-79
2023/07/01 15:33:52;;;;;;;4.57;1.40;;;;;;;20.04;100.00;98930.84;12067265;19;2721861;-78
2023/07/01 15:37:54;;;;;;;2.95;1.90;;;;;;;20.02;100.00;98930.38;12226427;19;20010;-78
2023/07/01 15:41:55;;;;;;;5.57;1.97;;;;;;;20.03;100.00;98929.22;12218172;19;20471;-79
2023/07/01 15:45:57;;;;;;;3.67;2.03;;;;;;;19.96;100.00;98917.72;12196599;19;20010;-79
2023/07/01 15:49:59;;;;;;;3.25;2.33;;;;;;;19.85;100.00;98903.28;12214755;19;20010;-79
2023/07/01 15:54:01;;;;;;;4.68;2.10;;;;;;;19.67;100.00;98913.69;12220490;19;20011;-79
2023/07/01 15:58:03;;;;;;;4.57;1.92;;;;;;;19.58;100.00;98902.50;12199792;19;21313;-79
2023/07/01 16:02:05;;;;;;;4.03;2.10;;;;;;;19.44;100.00;98890.69;12218663;19;20014;-78
2023/07/01 16:06:11;;;;;;;2.70;1.75;;;;;;;19.35;100.00;98893.47;12218965;19;20353;-79
2023/07/01 16:10:13;;;;;;;5.18;2.03;;;;;;;19.29;100.00;98892.00;12195178;19;20353;-79
2023/07/01 16:14:15;;;;;;;3.53;2.05;;;;;;;19.21;100.00;98887.25;12216080;19;20006;-78
2023/07/01 16:18:38;;;;;;;;;;;;;;;19.19;100.00;98886.78;12222066;19;20014;-78
2023/07/01 16:22:40;;;;;;;5.73;2.07;;;;;;;19.26;100.00;98872.31;12196059;19;19915;-78
2023/07/01 16:26:45;;;;;;;2.72;1.60;;;;;;;19.41;100.00;98869.00;12217778;19;20613;-78
2023/07/01 16:30:47;;;;;;;3.47;1.90;;;;;;;19.57;100.00;98872.91;12198679;19;20014;-78
2023/07/01 16:34:51;;;;;;;3.95;1.88;;;;;;;19.58;100.00;98871.75;12217606;19;20040;-78
2023/07/01 16:38:59;;;;;;;4.75;2.13;;;;;;;19.73;100.00;98862.03;12219594;19;20011;-78
2023/07/01 16:43:08;;;;;;;3.03;1.80;;;;;;;19.90;100.00;98863.97;12195562;19;20073;-78
2023/07/01 16:47:10;;;;;;;2.42;1.85;;;;;;;19.96;100.00;98864.59;12217602;19;20006;-77
2023/07/01 16:51:13;;;;;;;3.50;2.37;;;;;;;20.08;100.00;98861.91;12225016;19;20003;-77
2023/07/01 16:55:39;;;;;;;6.00;2.15;;;;;;;20.17;100.00;98859.09;12228939;19;20006;-78
2023/07/01 16:59:45;;;;;;;4.18;2.35;;;;;;;20.34;100.00;98856.16;12252003;19;20075;-78
2023/07/01 17:03:48;;;;;;;6.65;2.10;;;;;;;20.62;100.00;98855.72;12201924;19;20050;-78
2023/07/01 17:07:50;;;;;;;6.78;2.10;;;;;;;20.82;100.00;98854.91;12214250;19;20007;-78
2023/07/01 17:11:56;;;;;;;3.92;1.65;;;;;;;20.99;100.00;98853.13;12214464;19;20019;-77
2023/07/01 17:16:00;;;;;;;4.00;1.98;;;;;;;21.03;100.00;98848.44;12191447;19;20397;-79
2023/07/01 17:20:09;;;;;;;6.00;2.55;;;;;;;20.93;100.00;98855.31;12215498;19;20010;-78
2023/07/01 17:24:11;;;;;;;3.92;1.65;;;;;;;20.86;100.00;98855.03;12212971;19;20058;-78
2023/07/01 17:28:13;;;;;;;2.30;1.48;;;;;;;20.75;100.00;98846.22;12192097;19;20011;-79
2023/07/01 17:32:16;;;;;;;2.73;1.23;;;;;;;20.76;100.00;98852.63;12214370;19;20372;-78
2023/07/01 17:36:18;;;;;;;1.77;1.05;;;;;;;20.72;100.00;98866.50;12215404;19;20268;-78
2023/07/01 17:40:21;;;;;;;3.22;1.50;;;;;;;20.82;100.00;98860.50;12193949;19;20031;-79
2023/07/01 17:44:24;;;;;;;2.33;1.40;;;;;;;20.80;100.00;98868.41;12212579;19;20067;-79
2023/07/01 17:48:26;;;;;;;2.72;1.30;;;;;;;20.74;100.00;98872.59;12211512;19;20396;-77
2023/07/01 17:52:28;;;;;;;2.78;1.08;;;;;;;20.74;100.00;98872.59;12189538;19;20023;-79
2023/07/01 17:56:29;;;;;;;1.70;1.10;;;;;;;20.67;100.00;98867.53;12219846;19;20025;-79
2023/07/01 18:00:31;;;;;;;1.98;1.30;;;;;;;20.52;100.00;98870.06;12221745;19;20018;-78
2023/07/01 18:04:33;;;;;;;3.47;1.13;;;;;;;20.44;100.00;98880.16;12201002;19;20014;-79
2023/07/01 18:08:35;;;;;;;3.75;1.10;;;;;;;20.39;100.00;98900.75;12225677;19;20010;-79
2023/07/01 18:12:37;;;;;;;5.90;1.40;;;;;;;20.19;100.00;98876.31;12205377;19;20010;-78
2023/07/01 18:16:40;;;;;;;2.58;1.35;;;;;;;19.91;100.00;98881.56;12221188;19;20002;-79
2023/07/01 18:20:45;;;;;;;2.38;1.38;;;;;;;19.68;100.00;98875.38;12225544;19;20026;-78
2023/07/01 18:24:56;;;;;;;6.30;1.70;;;;;;;19.51;100.00;98877.03;12199075;19;20026;-78
2023/07/01 18:28:59;;;;;;;2.80;1.10;;;;;;;19.45;100.00;98872.75;12223587;19;20011;-79
2023/07/01 18:33:01;;;;;;;2.00;1.17;;;;;;;19.44;100.00;98871.13;12222869;19;20011;-79
2023/07/01 18:37:05;;;;;;;3.17;1.30;;;;;;;19.47;100.00;98873.25;12202284;19;20010;-78
2023/07/01 18:41:06;;;;;;;1.92;1.17;;;;;;;19.50;100.00;98867.00;12223666;19;20369;-78
2023/07/01 18:45:09;;;;;;;1.58;1.20;;;;;;;19.54;100.00;98875.53;12221696;19;20353;-78
2023/07/01 18:49:11;;;;;;;2.47;1.35;;;;;;;19.52;100.00;98878.66;12197285;19;20019;-78
2023/07/01 18:53:13;;;;;;;1.27;0.90;;;;;;;19.50;100.00;98872.59;12219972;19;20007;-78
2023/07/01 18:57:15;;;;;;;2.00;1.23;;;;;;;19.52;100.00;98884.25;12222148;19;20018;-78